Time;durP1;ratioP1;P1;durP2;ratioP2;P2;SDS_P1;SDS_P2;PMS_P1;PMS_P2;Temp;Humidity;BMP_temperature;BMP_pressure;BME280_temperature;BME280_humidity;BME280_pressure;Samples;Min_cycle;Max_cycle;Signal;HPM_P1;HPM_P2
2021/05/12 00:00:39;;;;;;;5.10;2.58;;;;;;;21.74;53.15;100495.83;1459491;93;21549;-60
2021/05/12 00:03:07;;;;;;;3.72;2.42;;;;;;;21.74;53.10;100493.63;1463548;93;21032;-60
2021/05/12 00:05:33;;;;;;;5.60;2.42;;;;;;;21.74;53.08;100493.06;1460410;93;21028;-59
2021/05/12 00:08:01;;;;;;;3.62;2.02;;;;;;;21.74;53.05;100490.86;1462634;93;21244;-59
2021/05/12 00:10:27;;;;;;;4.55;2.50;;;;;;;21.72;53.02;100491.21;1463444;93;21012;-60
2021/05/12 00:12:53;;;;;;;4.47;2.33;;;;;;;21.72;53.00;100487.63;1461227;93;21095;-60
2021/05/12 00:15:22;;;;;;;3.25;2.08;;;;;;;21.71;52.96;100488.20;1462599;93;21091;-60
2021/05/12 00:17:51;;;;;;;4.15;2.05;;;;;;;21.70;52.95;100482.41;1461157;93;21604;-60
2021/05/12 00:20:26;;;;;;;3.47;2.37;;;;;;;21.70;52.91;100482.41;1461200;93;21561;-60
2021/05/12 00:22:56;;;;;;;5.55;2.25;;;;;;;21.69;52.90;100481.34;1463146;93;21476;-60
2021/05/12 00:25:19;;;;;;;4.53;2.33;;;;;;;21.68;52.89;100474.21;1460636;93;21518;-60
2021/05/12 00:27:45;;;;;;;2.90;2.05;;;;;;;21.69;52.82;100471.09;1459911;93;21083;-60
2021/05/12 00:30:15;;;;;;;4.75;2.60;;;;;;;21.67;52.82;100465.66;1466369;93;21127;-60
2021/05/12 00:32:42;;;;;;;3.60;2.23;;;;;;;21.67;52.79;100462.32;1462820;93;21547;-60
2021/05/12 00:35:10;;;;;;;4.87;2.40;;;;;;;21.66;52.76;100462.07;1461293;93;21105;-60
2021/05/12 00:37:36;;;;;;;4.67;2.30;;;;;;;21.66;52.73;100468.99;1461594;93;21416;-60
2021/05/12 00:40:04;;;;;;;4.30;2.17;;;;;;;21.65;52.73;100465.98;1461741;93;21606;-59
2021/05/12 00:42:32;;;;;;;3.90;2.35;;;;;;;21.66;52.70;100465.41;1462309;93;21057;-60
2021/05/12 00:44:59;;;;;;;5.22;2.02;;;;;;;21.64;52.70;100457.42;1461913;93;23331;-60
2021/05/12 00:47:28;;;;;;;3.42;2.37;;;;;;;21.64;52.67;100455.26;1464245;93;21128;-59
2021/05/12 00:49:55;;;;;;;2.77;1.95;;;;;;;21.62;52.66;100448.66;1464324;93;21140;-60
2021/05/12 00:52:22;;;;;;;4.15;2.67;;;;;;;21.63;52.64;100448.09;1461123;93;21144;-60
2021/05/12 00:54:48;;;;;;;4.00;2.17;;;;;;;21.61;52.62;100444.26;1463369;94;21119;-60
2021/05/12 00:57:15;;;;;;;3.70;2.20;;;;;;;21.61;52.61;100451.75;1464456;93;21479;-60
2021/05/12 00:59:43;;;;;;;3.05;2.15;;;;;;;21.60;52.59;100444.01;1462069;93;21084;-61
2021/05/12 01:02:09;;;;;;;3.42;1.92;;;;;;;21.60;52.57;100443.23;1460761;93;21077;-61
2021/05/12 01:04:37;;;;;;;2.92;1.90;;;;;;;21.60;52.56;100443.23;1460947;93;21710;-61
2021/05/12 01:07:05;;;;;;;2.98;2.20;;;;;;;21.59;52.54;100442.41;1462014;93;21547;-61
2021/05/12 01:09:32;;;;;;;3.45;2.10;;;;;;;21.58;52.51;100426.94;1460807;93;22002;-61
2021/05/12 01:11:58;;;;;;;4.05;2.25;;;;;;;21.58;52.49;100428.89;1462263;93;21081;-62
2021/05/12 01:14:25;;;;;;;5.25;2.08;;;;;;;21.57;52.49;100428.08;1464557;93;21732;-61
2021/05/12 01:16:51;;;;;;;4.08;2.12;;;;;;;21.57;52.48;100424.49;1464686;93;21690;-61
2021/05/12 01:19:17;;;;;;;3.10;2.05;;;;;;;21.57;52.44;100435.00;1462472;93;21155;-61
2021/05/12 01:21:44;;;;;;;3.20;1.90;;;;;;;21.56;52.43;100426.45;1460758;94;21318;-60
2021/05/12 01:24:10;;;;;;;3.92;2.12;;;;;;;21.56;52.41;100431.16;1460552;93;21467;-60
2021/05/12 01:26:36;;;;;;;3.17;2.00;;;;;;;21.54;52.38;100420.45;1461306;93;21112;-61
2021/05/12 01:29:04;;;;;;;3.83;2.00;;;;;;;21.54;52.37;100419.06;1455338;93;21174;-61
2021/05/12 01:31:36;;;;;;;4.33;2.17;;;;;;;21.54;52.38;100417.68;1464584;93;21625;-61
2021/05/12 01:34:05;;;;;;;2.70;1.95;;;;;;;21.53;52.38;100409.70;1461903;93;22233;-61
2021/05/12 01:36:31;;;;;;;4.12;2.12;;;;;;;21.53;52.33;100407.74;1460171;93;21058;-62
2021/05/12 01:38:57;;;;;;;4.00;2.12;;;;;;;21.52;52.34;100402.53;1461607;93;21136;-62
2021/05/12 01:41:25;;;;;;;3.77;2.22;;;;;;;21.52;52.32;100407.50;1460649;93;21112;-61
2021/05/12 01:43:51;;;;;;;3.40;2.25;;;;;;;21.51;52.31;100399.55;1459623;93;21449;-61
2021/05/12 01:46:17;;;;;;;4.22;2.30;;;;;;;21.50;52.27;100400.11;1467260;92;21194;-60
2021/05/12 01:48:44;;;;;;;4.05;2.17;;;;;;;21.51;52.26;100398.16;1439733;95;21066;-60
2021/05/12 01:51:10;;;;;;;3.77;2.12;;;;;;;21.50;52.26;100395.96;1472432;92;21004;-60
2021/05/12 01:53:36;;;;;;;3.02;2.22;;;;;;;21.49;52.23;100393.52;1468988;92;21118;-60
2021/05/12 01:56:03;;;;;;;3.85;2.08;;;;;;;21.49;52.22;100390.18;1470916;92;21499;-60
2021/05/12 01:58:30;;;;;;;3.42;2.08;;;;;;;21.48;52.20;100391.31;1467870;92;21176;-61
2021/05/12 02:00:56;;;;;;;3.55;2.05;;;;;;;21.48;52.19;100391.89;1471136;92;21132;-60
2021/05/12 02:03:22;;;;;;;2.87;2.00;;;;;;;21.48;52.16;100393.27;1473584;92;21143;-60
2021/05/12 02:05:51;;;;;;;5.33;2.42;;;;;;;21.49;52.16;100387.98;1467291;92;21171;-60
2021/05/12 02:08:20;;;;;;;6.03;2.80;;;;;;;21.49;52.14;100383.83;1471076;92;20996;-59
2021/05/12 02:10:46;;;;;;;2.98;1.75;;;;;;;21.50;52.09;100384.08;1467634;92;21205;-61
2021/05/12 02:13:12;;;;;;;6.67;2.83;;;;;;;21.50;52.12;100379.92;1470306;92;21131;-60
2021/05/12 02:15:42;;;;;;;19.60;9.00;;;;;;;21.51;52.12;100376.83;1466755;92;22218;-61
2021/05/12 02:18:10;;;;;;;35.58;12.93;;;;;;;21.52;52.09;100375.66;1465146;92;21166;-61
2021/05/12 02:20:36;;;;;;;4.20;2.05;;;;;;;21.53;52.10;100373.71;1467402;92;21127;-61
2021/05/12 02:23:05;;;;;;;4.42;2.33;;;;;;;21.52;52.11;100372.08;1468889;92;21539;-61
2021/05/12 02:25:32;;;;;;;3.00;2.10;;;;;;;21.52;52.17;100372.90;1469577;92;21084;-60
2021/05/12 02:27:58;;;;;;;3.67;1.67;;;;;;;21.51;52.22;100367.15;1467271;92;21115;-60
2021/05/12 02:30:24;;;;;;;3.52;1.80;;;;;;;21.51;52.25;100368.53;1467686;92;21261;-63
2021/05/12 02:32:51;;;;;;;5.78;1.70;;;;;;;21.51;52.33;100366.33;1464932;94;21142;-62
2021/05/12 02:35:18;;;;;;;5.35;2.10;;;;;;;21.50;52.36;100371.05;1469568;92;21559;-62
2021/05/12 02:37:45;;;;;;;2.52;1.70;;;;;;;21.50;52.39;100366.08;1469548;92;21037;-62
2021/05/12 02:40:14;;;;;;;3.00;1.80;;;;;;;21.48;52.42;100363.64;1466291;93;21063;-62
2021/05/12 02:42:41;;;;;;;3.65;2.00;;;;;;;21.49;52.42;100368.61;1466434;92;21530;-62
2021/05/12 02:45:08;;;;;;;2.22;1.67;;;;;;;21.48;52.46;100366.41;1468085;92;21737;-63
2021/05/12 02:47:34;;;;;;;4.03;2.10;;;;;;;21.47;52.46;100365.38;1461773;93;21166;-62
2021/05/12 02:50:00;;;;;;;3.58;2.15;;;;;;;21.46;52.46;100358.22;1461381;93;21520;-62
2021/05/12 02:52:27;;;;;;;2.95;1.80;;;;;;;21.46;52.45;100360.41;1459835;93;21081;-62
2021/05/12 02:54:53;;;;;;;2.50;1.60;;;;;;;21.45;52.44;100359.35;1463290;93;21104;-62
2021/05/12 02:57:19;;;;;;;6.42;1.80;;;;;;;21.43;52.44;100353.57;1460029;93;21194;-62
2021/05/12 02:59:46;;;;;;;4.05;1.80;;;;;;;21.43;52.43;100349.98;1465578;93;21572;-62
2021/05/12 03:02:12;;;;;;;3.90;2.08;;;;;;;21.43;52.39;100350.59;1463034;92;21176;-62
2021/05/12 03:04:39;;;;;;;3.47;1.95;;;;;;;21.42;52.38;100348.39;1462027;93;21084;-62
2021/05/12 03:07:05;;;;;;;2.77;1.77;;;;;;;21.41;52.35;100345.37;1460425;93;21660;-62
2021/05/12 03:09:31;;;;;;;3.10;1.80;;;;;;;21.39;52.35;100344.31;1459748;94;21083;-62
2021/05/12 03:11:57;;;;;;;4.47;1.80;;;;;;;21.39;52.33;100343.50;1463967;92;22070;-62
2021/05/12 03:14:23;;;;;;;4.60;2.02;;;;;;;21.37;52.30;100343.86;1461487;93;21135;-63
2021/05/12 03:16:50;;;;;;;2.40;1.70;;;;;;;21.39;52.26;100349.03;1460788;93;21124;-62
2021/05/12 03:19:16;;;;;;;3.27;2.00;;;;;;;21.38;52.23;100339.95;1459899;93;21111;-62
2021/05/12 03:21:43;;;;;;;2.17;1.80;;;;;;;21.37;52.22;100339.70;1460458;93;21093;-62
2021/05/12 03:24:09;;;;;;;3.87;1.52;;;;;;;21.36;52.20;100336.69;1460967;93;21160;-62
2021/05/12 03:26:35;;;;;;;3.10;1.87;;;;;;;21.35;52.16;100335.06;1461559;93;21048;-62
2021/05/12 03:29:03;;;;;;;3.92;1.95;;;;;;;21.35;52.14;100334.24;1459217;93;21473;-63
2021/05/12 03:31:29;;;;;;;2.33;1.72;;;;;;;21.33;52.12;100334.59;1461521;93;21100;-62
2021/05/12 03:33:57;;;;;;;2.60;1.80;;;;;;;21.34;52.10;100332.64;1461040;93;21080;-62
2021/05/12 03:36:24;;;;;;;2.95;1.77;;;;;;;21.33;52.06;100328.25;1463612;93;21071;-62
2021/05/12 03:38:50;;;;;;;3.75;1.85;;;;;;;21.33;52.05;100328.25;1459422;94;21064;-62
2021/05/12 03:41:17;;;;;;;3.35;1.82;;;;;;;21.31;52.00;100334.11;1459463;93;21603;-62
2021/05/12 03:43:43;;;;;;;3.37;2.10;;;;;;;21.30;51.99;100322.01;1460477;93;20903;-62
2021/05/12 03:46:09;;;;;;;3.00;1.75;;;;;;;21.30;51.97;100328.33;1460219;93;21495;-62
2021/05/12 03:48:35;;;;;;;2.77;1.90;;;;;;;21.30;51.94;100322.01;1440216;94;21756;-62
2021/05/12 03:51:01;;;;;;;4.12;1.95;;;;;;;21.29;51.93;100319.00;1461460;93;21536;-62
2021/05/12 03:53:28;;;;;;;3.15;1.92;;;;;;;21.28;51.88;100325.09;1437433;94;21107;-62
2021/05/12 03:55:54;;;;;;;3.45;1.75;;;;;;;21.29;51.87;100322.58;1459933;93;21144;-62
2021/05/12 03:58:20;;;;;;;3.08;1.65;;;;;;;21.27;51.85;100315.16;1460399;93;21507;-62
2021/05/12 04:00:46;;;;;;;2.67;2.00;;;;;;;21.27;51.83;100317.12;1464568;93;21330;-62
2021/05/12 04:03:13;;;;;;;2.62;1.90;;;;;;;21.26;51.81;100314.14;1462527;92;21525;-62
2021/05/12 04:05:39;;;;;;;2.58;1.62;;;;;;;21.26;51.80;100311.37;1464243;93;21042;-62
2021/05/12 04:08:05;;;;;;;1.95;1.50;;;;;;;21.26;51.74;100313.53;1459728;93;21059;-62
2021/05/12 04:10:31;;;;;;;2.60;1.67;;;;;;;21.26;51.75;100312.75;1461283;93;21089;-62
2021/05/12 04:12:57;;;;;;;2.12;1.60;;;;;;;21.25;51.70;100306.97;1459647;94;21396;-62
2021/05/12 04:15:24;;;;;;;2.67;1.80;;;;;;;21.25;51.69;100305.59;1460915;93;21004;-63
2021/05/12 04:17:50;;;;;;;3.65;1.80;;;;;;;21.24;51.68;100302.58;1464051;93;21073;-62
2021/05/12 04:20:19;;;;;;;2.75;1.72;;;;;;;21.24;51.64;100299.81;1463511;93;21716;-62
2021/05/12 04:22:45;;;;;;;2.10;1.70;;;;;;;21.23;51.62;100300.38;1461014;93;21803;-62
2021/05/12 04:25:19;;;;;;;3.12;1.85;;;;;;;21.23;51.60;100307.30;1463071;93;21782;-62
2021/05/12 04:27:45;;;;;;;3.42;1.87;;;;;;;21.23;51.58;100296.80;1434159;94;21169;-62
2021/05/12 04:30:13;;;;;;;3.20;1.40;;;;;;;21.23;51.57;100291.27;1434574;95;21474;-61
2021/05/12 04:32:41;;;;;;;2.75;1.30;;;;;;;21.21;51.59;100288.85;1435214;95;21554;-62
2021/05/12 04:35:09;;;;;;;2.00;1.67;;;;;;;21.22;51.71;100285.48;1460863;93;21108;-62
2021/05/12 04:37:36;;;;;;;1.75;1.20;;;;;;;21.21;51.80;100283.89;1463581;93;22531;-63
2021/05/12 04:40:03;;;;;;;1.92;1.42;;;;;;;21.22;51.91;100281.34;1463730;93;21132;-62
2021/05/12 04:42:29;;;;;;;2.15;1.45;;;;;;;21.21;52.03;100272.82;1464117;93;21107;-62
2021/05/12 04:44:58;;;;;;;2.87;1.70;;;;;;;21.21;52.10;100283.32;1463302;93;21124;-62
2021/05/12 04:47:26;;;;;;;2.60;1.52;;;;;;;21.20;52.18;100283.08;1435699;94;21094;-63
2021/05/12 04:49:53;;;;;;;3.67;1.80;;;;;;;21.21;52.26;100278.36;1454802;94;21535;-62
2021/05/12 04:52:19;;;;;;;2.02;1.32;;;;;;;21.20;52.29;100274.77;1457060;94;21335;-63
2021/05/12 04:54:45;;;;;;;2.90;1.35;;;;;;;21.19;52.33;100271.77;1454864;94;21077;-63
2021/05/12 04:57:11;;;;;;;3.15;1.40;;;;;;;21.21;52.40;100268.67;1455255;94;21096;-62
2021/05/12 04:59:37;;;;;;;2.83;1.37;;;;;;;21.20;52.46;100273.39;1457684;94;21136;-62
2021/05/12 05:02:05;;;;;;;2.72;1.50;;;;;;;21.20;52.47;100268.42;1453283;94;21207;-62
2021/05/12 05:04:31;;;;;;;2.47;1.32;;;;;;;21.19;52.53;100267.61;1455045;94;21575;-62
2021/05/12 05:06:57;;;;;;;3.02;2.22;;;;;;;21.19;52.58;100264.03;1458082;94;21095;-62
2021/05/12 05:09:24;;;;;;;2.33;1.42;;;;;;;21.19;52.60;100267.61;1457380;94;21500;-62
2021/05/12 05:11:50;;;;;;;2.83;1.70;;;;;;;21.18;52.64;100263.22;1458752;94;21129;-62
2021/05/12 05:14:16;;;;;;;2.75;1.22;;;;;;;21.18;52.67;100254.92;1457723;94;21225;-62
2021/05/12 05:16:42;;;;;;;2.27;1.32;;;;;;;21.18;52.70;100255.48;1457163;94;21467;-62
2021/05/12 05:19:08;;;;;;;2.22;1.47;;;;;;;21.18;52.71;100259.06;1458628;94;20994;-62
2021/05/12 05:21:35;;;;;;;2.92;1.47;;;;;;;21.17;52.75;100257.47;1456407;94;21163;-62
2021/05/12 05:24:01;;;;;;;2.17;1.55;;;;;;;21.17;52.78;100257.47;1452452;94;21116;-63
2021/05/12 05:26:27;;;;;;;1.70;1.20;;;;;;;21.17;52.80;100256.09;1455133;94;21166;-63
2021/05/12 05:28:53;;;;;;;4.17;1.90;;;;;;;21.16;52.84;100250.31;1457111;94;21085;-63
2021/05/12 05:31:19;;;;;;;3.67;1.50;;;;;;;21.16;52.83;100249.50;1460414;94;21030;-62
2021/05/12 05:33:45;;;;;;;2.45;1.52;;;;;;;21.16;52.86;100253.08;1457791;94;21530;-62
2021/05/12 05:36:12;;;;;;;2.02;1.50;;;;;;;21.16;52.86;100246.16;1457035;94;21066;-63
2021/05/12 05:38:38;;;;;;;2.92;1.70;;;;;;;21.16;52.87;100254.45;1456352;94;21246;-63
2021/05/12 05:41:04;;;;;;;3.30;1.35;;;;;;;21.16;52.88;100260.56;1456128;94;21809;-62
2021/05/12 05:43:30;;;;;;;2.77;1.40;;;;;;;21.15;52.91;100258.36;1455871;94;21072;-62
2021/05/12 05:45:57;;;;;;;2.25;1.30;;;;;;;21.15;52.93;100263.89;1458137;93;21044;-63
2021/05/12 05:48:24;;;;;;;2.62;1.52;;;;;;;21.15;52.94;100264.47;1461996;93;21085;-62
2021/05/12 05:50:50;;;;;;;5.10;1.80;;;;;;;21.14;52.94;100266.98;1464978;93;21249;-62
2021/05/12 05:53:19;;;;;;;2.35;1.40;;;;;;;21.14;52.95;100258.69;1466149;93;21513;-62
2021/05/12 05:55:46;;;;;;;2.50;1.35;;;;;;;21.15;52.96;100264.47;1463036;93;21056;-63
2021/05/12 05:58:13;;;;;;;4.10;1.67;;;;;;;21.14;52.99;100261.45;1464058;93;21302;-62
2021/05/12 06:00:43;;;;;;;4.75;1.47;;;;;;;21.13;52.99;100263.41;1463601;93;21101;-62
2021/05/12 06:03:09;;;;;;;2.12;1.25;;;;;;;21.14;52.97;100262.84;1464832;93;26750;-62
2021/05/12 06:05:36;;;;;;;4.10;1.62;;;;;;;21.14;52.99;100258.69;1461313;93;21502;-62
2021/05/12 06:08:02;;;;;;;3.25;1.40;;;;;;;21.12;52.97;100261.80;1460795;94;21078;-61
2021/05/12 06:10:28;;;;;;;2.27;1.32;;;;;;;21.13;53.00;100257.87;1465694;92;21697;-62
2021/05/12 06:12:54;;;;;;;2.65;1.60;;;;;;;21.13;53.01;100258.47;1461808;92;21462;-62
2021/05/12 06:15:20;;;;;;;4.33;1.40;;;;;;;21.13;53.01;100255.70;1460147;93;21023;-62
2021/05/12 06:17:47;;;;;;;1.72;1.25;;;;;;;21.13;53.02;100259.25;1459852;93;21118;-62
2021/05/12 06:20:14;;;;;;;1.72;1.32;;;;;;;21.13;53.02;100254.32;1461288;93;21054;-59
2021/05/12 06:22:41;;;;;;;2.75;1.32;;;;;;;21.13;53.02;100251.55;1460655;93;21084;-60
2021/05/12 06:25:10;;;;;;;2.50;1.55;;;;;;;21.13;53.04;100251.55;1465013;93;21107;-60
2021/05/12 06:27:37;;;;;;;1.82;1.32;;;;;;;21.12;53.04;100249.89;1436706;94;21625;-60
2021/05/12 06:30:07;;;;;;;1.92;1.30;;;;;;;21.12;53.04;100248.52;1463301;93;21238;-61
2021/05/12 06:32:34;;;;;;;2.45;1.60;;;;;;;21.12;53.04;100250.74;1462983;93;21149;-61
2021/05/12 06:35:00;;;;;;;2.60;1.20;;;;;;;21.12;53.05;100250.74;1463152;93;21125;-61
2021/05/12 06:37:29;;;;;;;2.77;1.10;;;;;;;21.12;53.08;100242.98;1463032;93;21112;-61
2021/05/12 06:39:54;;;;;;;1.55;1.02;;;;;;;21.12;53.07;100242.98;1461688;93;21591;-60
2021/05/12 06:42:20;;;;;;;2.15;1.07;;;;;;;21.12;53.07;100231.91;1462452;93;21522;-61
2021/05/12 06:44:46;;;;;;;3.05;1.30;;;;;;;21.12;53.07;100231.91;1438084;94;21088;-61
2021/05/12 06:47:13;;;;;;;1.60;1.10;;;;;;;21.11;53.08;100239.41;1461590;93;21176;-61
2021/05/12 06:49:39;;;;;;;1.80;1.20;;;;;;;21.11;53.09;100240.78;1455379;94;20946;-61
2021/05/12 06:52:05;;;;;;;1.95;1.10;;;;;;;21.11;53.09;100231.67;1457470;94;21441;-61
2021/05/12 06:54:31;;;;;;;2.90;1.22;;;;;;;21.11;53.09;100225.57;1459221;93;21197;-60
2021/05/12 06:56:58;;;;;;;1.57;1.37;;;;;;;21.12;53.09;100227.77;1451689;94;21141;-61
2021/05/12 06:59:24;;;;;;;2.05;1.30;;;;;;;21.12;53.09;100220.85;1458312;94;21170;-61
2021/05/12 07:01:52;;;;;;;3.02;1.25;;;;;;;21.12;53.09;100223.08;1459625;94;21001;-62
2021/05/12 07:04:18;;;;;;;2.80;1.20;;;;;;;21.12;53.08;100219.47;1462045;93;23303;-61
2021/05/12 07:06:44;;;;;;;3.00;1.12;;;;;;;21.11;53.10;100220.61;1455168;94;21565;-61
2021/05/12 07:09:10;;;;;;;1.70;1.22;;;;;;;21.11;53.09;100221.42;1457051;94;21101;-61
2021/05/12 07:11:36;;;;;;;2.10;1.22;;;;;;;21.10;53.09;100213.45;1460254;94;21112;-61
2021/05/12 07:14:06;;;;;;;1.87;1.20;;;;;;;21.11;53.09;100215.89;1456819;94;21159;-60
2021/05/12 07:16:31;;;;;;;1.95;1.20;;;;;;;21.11;53.09;100213.13;1456617;94;22257;-61
2021/05/12 07:18:57;;;;;;;2.45;1.30;;;;;;;21.13;53.08;100218.36;1457086;94;21160;-61
2021/05/12 07:21:24;;;;;;;2.98;1.12;;;;;;;21.13;53.08;100211.45;1461619;94;21017;-61
2021/05/12 07:23:50;;;;;;;2.27;1.30;;;;;;;21.11;53.08;100210.36;1459497;93;21107;-61
2021/05/12 07:26:16;;;;;;;1.65;1.00;;;;;;;21.12;53.08;100207.87;1457521;94;21125;-62
2021/05/12 07:28:45;;;;;;;1.52;1.25;;;;;;;21.12;53.08;100213.94;1453327;94;22409;-62
2021/05/12 07:31:10;;;;;;;1.72;1.00;;;;;;;21.12;53.07;100211.17;1461058;94;21456;-62
2021/05/12 07:33:36;;;;;;;2.33;1.20;;;;;;;21.12;53.08;100204.25;1457436;94;21023;-62
2021/05/12 07:36:04;;;;;;;2.10;1.00;;;;;;;21.12;53.05;100205.64;1455734;94;21511;-62
2021/05/12 07:38:30;;;;;;;1.40;0.85;;;;;;;21.12;53.05;100200.95;1457606;94;21059;-61
2021/05/12 07:40:59;;;;;;;3.17;1.27;;;;;;;21.12;53.05;100193.19;1453926;94;21564;-61
2021/05/12 07:43:24;;;;;;;3.67;1.05;;;;;;;21.12;53.04;100189.89;1457047;94;21053;-62
2021/05/12 07:45:50;;;;;;;1.35;1.00;;;;;;;21.11;53.05;100197.91;1460420;94;21524;-61
2021/05/12 07:48:17;;;;;;;2.42;1.22;;;;;;;21.12;53.05;100193.19;1461084;92;21487;-61
2021/05/12 07:50:43;;;;;;;1.35;0.95;;;;;;;21.13;53.04;100186.55;1469537;92;21537;-61
2021/05/12 07:53:09;;;;;;;1.05;0.95;;;;;;;21.12;53.05;100184.89;1470100;92;23237;-61
2021/05/12 07:55:36;;;;;;;2.35;1.05;;;;;;;21.13;53.05;100192.08;1471439;92;21166;-61
2021/05/12 07:58:03;;;;;;;1.62;1.00;;;;;;;21.13;53.05;100179.64;1471857;92;21601;-61
2021/05/12 08:00:35;;;;;;;2.92;1.10;;;;;;;21.12;53.04;100181.59;1472850;92;21088;-61
2021/05/12 08:02:57;;;;;;;1.65;1.00;;;;;;;21.13;53.05;100179.64;1469406;92;21122;-61
2021/05/12 08:05:24;;;;;;;1.90;1.17;;;;;;;21.13;53.05;100178.25;1468669;92;21140;-61
2021/05/12 08:07:50;;;;;;;1.70;1.20;;;;;;;21.12;53.04;100173.83;1474034;92;21432;-61
2021/05/12 08:10:16;;;;;;;1.65;1.00;;;;;;;21.13;53.04;100164.42;1469845;92;21187;-61
2021/05/12 08:12:42;;;;;;;1.35;1.10;;;;;;;21.12;53.05;100171.91;1471011;92;21132;-61
2021/05/12 08:15:10;;;;;;;2.52;1.10;;;;;;;21.13;53.05;100169.36;1444003;94;21460;-62
2021/05/12 08:17:36;;;;;;;1.20;0.90;;;;;;;21.13;53.05;100159.67;1470898;92;21154;-62
2021/05/12 08:20:04;;;;;;;2.62;1.10;;;;;;;21.14;53.04;100163.25;1471425;92;21107;-61
2021/05/12 08:22:30;;;;;;;1.90;1.07;;;;;;;21.14;53.05;100158.53;1473397;92;21692;-61
2021/05/12 08:24:57;;;;;;;1.52;1.12;;;;;;;21.14;53.05;100161.30;1471386;92;21066;-61
2021/05/12 08:27:23;;;;;;;2.42;0.90;;;;;;;21.13;53.02;100158.89;1443238;95;21369;-61
2021/05/12 08:29:49;;;;;;;2.37;1.10;;;;;;;21.14;53.02;100160.48;1468955;93;23365;-61
2021/05/12 08:32:16;;;;;;;1.67;1.17;;;;;;;21.14;53.02;100159.11;1471808;92;21589;-62
2021/05/12 08:34:42;;;;;;;1.95;1.10;;;;;;;21.14;53.03;100163.25;1465965;92;21121;-61
2021/05/12 08:37:09;;;;;;;2.08;1.20;;;;;;;21.13;53.01;100151.38;1471138;92;21463;-62
2021/05/12 08:39:35;;;;;;;2.30;1.05;;;;;;;21.15;53.00;100159.34;1472071;92;21026;-62
2021/05/12 08:42:02;;;;;;;1.87;1.00;;;;;;;21.15;53.00;100151.05;1470478;92;21964;-62
2021/05/12 08:44:30;;;;;;;1.70;1.10;;;;;;;21.14;53.02;100153.58;1470602;92;21028;-62
2021/05/12 08:46:56;;;;;;;1.60;1.00;;;;;;;21.14;53.02;100147.47;1446182;92;21135;-61
2021/05/12 08:49:22;;;;;;;2.15;0.95;;;;;;;21.15;53.00;100148.28;1462640;93;21001;-61
2021/05/12 08:51:49;;;;;;;1.40;0.90;;;;;;;21.15;52.99;100137.22;1462878;93;21030;-61
2021/05/12 08:54:15;;;;;;;1.55;0.90;;;;;;;21.14;53.01;100133.64;1461492;93;21445;-62
2021/05/12 08:56:41;;;;;;;1.20;1.00;;;;;;;21.14;53.01;100137.79;1466628;93;21119;-61
2021/05/12 08:59:07;;;;;;;2.40;0.88;;;;;;;21.15;52.99;100138.03;1464294;93;22784;-61
2021/05/12 09:01:34;;;;;;;2.22;1.05;;;;;;;21.15;52.96;100132.50;1462014;93;21006;-62
2021/05/12 09:04:04;;;;;;;1.52;0.98;;;;;;;21.16;52.96;100126.39;1460483;93;21053;-62
2021/05/12 09:06:33;;;;;;;1.42;0.90;;;;;;;21.16;52.99;100127.78;1462567;93;21153;-62
2021/05/12 09:09:00;;;;;;;1.50;0.90;;;;;;;21.17;52.97;100131.61;1459912;93;21184;-62
2021/05/12 09:11:28;;;;;;;1.27;0.90;;;;;;;21.16;52.98;100127.21;1462173;93;21036;-61
2021/05/12 09:13:55;;;;;;;1.47;0.80;;;;;;;21.16;52.97;100121.68;1463018;93;21093;-62
2021/05/12 09:16:29;;;;;;;1.52;1.05;;;;;;;21.17;52.97;100125.26;1459972;94;21533;-62
2021/05/12 09:19:13;;;;;;;1.30;0.90;;;;;;;21.16;52.93;100124.45;1439663;94;21176;-61
2021/05/12 09:21:56;;;;;;;1.22;0.70;;;;;;;21.16;52.94;100116.14;1463494;92;21113;-61
2021/05/12 09:24:31;;;;;;;2.55;1.12;;;;;;;21.17;52.91;100121.11;1463066;93;21571;-60
2021/05/12 09:27:14;;;;;;;2.12;1.27;;;;;;;21.17;52.90;100120.54;1463392;93;21061;-60
2021/05/12 09:29:42;;;;;;;2.33;1.52;;;;;;;21.17;52.87;100123.30;1461465;93;21148;-61
2021/05/12 09:32:11;;;;;;;4.97;3.55;;;;;;;21.18;52.92;100117.17;1462484;93;21053;-60
2021/05/12 09:35:01;;;;;;;13.78;9.83;;;;;;;21.17;52.91;100103.12;1432585;95;21082;-61
2021/05/12 09:37:40;;;;;;;95.05;61.18;;;;;;;21.18;52.93;100108.88;1423455;96;21175;-60
2021/05/12 09:40:17;;;;;;;152.32;102.80;;;;;;;21.18;52.94;100108.88;1460828;93;21393;-60
2021/05/12 09:42:45;;;;;;;133.80;87.57;;;;;;;21.18;52.89;100100.58;1462723;93;21030;-60
2021/05/12 09:45:17;;;;;;;96.35;65.83;;;;;;;21.20;52.83;100099.67;1460919;93;22051;-60
2021/05/12 09:47:45;;;;;;;92.45;63.48;;;;;;;21.20;52.76;100098.30;1461969;93;21583;-60
2021/05/12 09:50:21;;;;;;;94.47;63.42;;;;;;;21.21;52.73;100098.53;1464498;93;21537;-59
2021/05/12 09:52:59;;;;;;;97.20;66.17;;;;;;;21.21;52.67;100088.86;1460315;93;21064;-60
2021/05/12 09:55:40;;;;;;;87.80;62.30;;;;;;;21.23;52.62;100097.04;1464344;93;21125;-60
2021/05/12 09:58:08;;;;;;;;;;;;;;;21.25;52.58;100091.17;1465341;93;21109;-61
2021/05/12 10:00:38;;;;;;;78.12;54.45;;;;;;;21.26;52.56;100096.34;1462606;93;20239;-57
2021/05/12 10:03:05;;;;;;;84.75;56.28;;;;;;;21.28;52.50;100086.34;1461368;93;21122;-57
2021/05/12 10:05:56;;;;;;;83.58;55.43;;;;;;;21.32;52.48;100102.50;1462660;94;21063;-55
2021/05/12 10:08:30;;;;;;;;;;;;;;;21.34;52.39;100093.30;1463478;94;21430;-55
2021/05/12 10:11:01;;;;;;;87.75;52.05;;;;;;;21.37;52.34;100087.08;1462102;94;21186;-55
2021/05/12 10:13:28;;;;;;;76.72;51.65;;;;;;;21.37;52.30;100085.69;1467512;93;21053;-55
2021/05/12 10:15:55;;;;;;;72.82;50.38;;;;;;;21.39;52.28;100081.99;1465550;93;21357;-56
2021/05/12 10:18:21;;;;;;;73.72;49.60;;;;;;;21.39;52.23;100081.42;1464605;93;21029;-55
2021/05/12 10:20:47;;;;;;;69.05;47.13;;;;;;;21.43;52.21;100081.55;1466399;93;21048;-57
2021/05/12 10:23:13;;;;;;;65.10;46.25;;;;;;;21.44;52.21;100077.63;1462670;93;22105;-54
2021/05/12 10:25:39;;;;;;;64.50;45.98;;;;;;;21.48;52.20;100072.22;1461272;94;21149;-54
2021/05/12 10:28:07;;;;;;;67.70;45.25;;;;;;;21.49;52.19;100069.12;1463652;93;21534;-55
2021/05/12 10:30:35;;;;;;;69.12;45.88;;;;;;;21.52;52.18;100053.78;1445850;94;21068;-55
2021/05/12 10:33:01;;;;;;;59.45;43.75;;;;;;;21.55;52.15;100058.09;1465656;93;21073;-55
2021/05/12 10:35:32;;;;;;;59.08;41.13;;;;;;;21.57;52.14;100044.70;1461068;93;21351;-55
2021/05/12 10:37:59;;;;;;;57.10;40.15;;;;;;;21.61;52.13;100051.16;1465537;93;21008;-56
2021/05/12 10:40:38;;;;;;;57.00;40.43;;;;;;;21.65;52.10;100046.56;1461077;94;21303;-55
2021/05/12 10:43:25;;;;;;;58.73;37.48;;;;;;;21.69;52.08;100036.98;1459597;94;21056;-56
2021/05/12 10:45:59;;;;;;;55.15;37.98;;;;;;;21.73;52.06;100046.22;1463116;93;21033;-55
2021/05/12 10:48:44;;;;;;;56.77;37.33;;;;;;;21.76;52.04;100038.63;1469842;92;21246;-55
2021/05/12 10:51:33;;;;;;;51.42;34.98;;;;;;;21.79;52.01;100040.13;1484415;92;21758;-55
2021/05/12 10:54:03;;;;;;;44.33;32.60;;;;;;;21.82;51.97;100038.62;1472055;92;21440;-56
2021/05/12 10:56:40;;;;;;;46.93;32.73;;;;;;;21.85;51.95;100038.74;1469970;92;20992;-55
2021/05/12 10:59:12;;;;;;;48.45;31.52;;;;;;;21.87;51.94;100030.09;1468537;92;21019;-56
2021/05/12 11:01:48;;;;;;;41.02;29.85;;;;;;;21.91;51.93;100031.59;1482394;92;21546;-55
2021/05/12 11:04:16;;;;;;;45.95;30.30;;;;;;;21.94;51.92;100025.42;1472941;92;21383;-55
2021/05/12 11:06:52;;;;;;;44.70;28.98;;;;;;;21.98;51.89;100020.80;1471425;92;21063;-55
2021/05/12 11:09:39;;;;;;;37.13;25.75;;;;;;;22.02;51.88;100021.16;1471098;93;21472;-56
2021/05/12 11:12:12;;;;;;;37.70;25.90;;;;;;;22.04;51.85;100018.02;1481232;92;21106;-55
2021/05/12 11:14:39;;;;;;;36.93;25.15;;;;;;;22.08;51.81;100021.14;1449116;94;21479;-56
2021/05/12 11:17:12;;;;;;;32.90;23.40;;;;;;;22.12;51.77;100019.30;1467123;93;21051;-56
2021/05/12 11:25:22;;;;;;;30.90;21.70;;;;;;;22.22;51.71;100015.25;1475374;92;21359;-56
2021/05/12 11:33:30;;;;;;;28.25;19.02;;;;;;;22.33;51.67;100001.15;1471943;93;21041;-56
2021/05/12 11:36:01;;;;;;;26.68;18.55;;;;;;;22.38;51.65;99998.72;1474165;92;21582;-56
2021/05/12 11:38:27;;;;;;;26.02;17.70;;;;;;;22.41;51.64;99993.86;1469181;94;20921;-56